Time;durP1;ratioP1;P1;durP2;ratioP2;P2;SDS_P1;SDS_P2;PMS_P1;PMS_P2;Temp;Humidity;BMP_temperature;BMP_pressure;BME280_temperature;BME280_humidity;BME280_pressure;Samples;Min_cycle;Max_cycle;Signal;HPM_P1;HPM_P2
2022/06/25 00:01:44;;;;;;;4.50;2.27;;;17.10;99.90;;;;;;5035529;28;20190;-78
2022/06/25 00:05:27;;;;;;;3.07;2.63;;;17.10;99.90;;;;;;5019008;28;20173;-78
2022/06/25 00:06:55;;;;;;;5.00;2.63;;;17.10;99.90;;;;;;5037282;28;20259;-78
2022/06/25 00:09:21;;;;;;;3.60;2.30;;;17.10;99.90;;;;;;5018490;28;20223;-78
2022/06/25 00:14:31;;;;;;;5.33;2.40;;;17.10;99.90;;;;;;5036700;28;20163;-78
2022/06/25 00:16:56;;;;;;;2.37;2.17;;;17.10;99.90;;;;;;5017618;28;20263;-77
2022/06/25 00:19:23;;;;;;;10.80;2.60;;;17.00;99.90;;;;;;5015973;28;20200;-77
2022/06/25 00:21:49;;;;;;;8.63;2.47;;;17.00;99.90;;;;;;5033972;28;20251;-78
2022/06/25 00:24:16;;;;;;;2.33;2.03;;;17.00;99.90;;;;;;5016813;28;20172;-78
2022/06/25 00:26:42;;;;;;;4.63;2.30;;;17.00;99.90;;;;;;5016497;28;20177;-78
2022/06/25 00:29:10;;;;;;;4.97;2.10;;;17.00;99.90;;;;;;5034973;28;20220;-78
2022/06/25 00:31:35;;;;;;;2.73;2.30;;;17.00;99.90;;;;;;5034667;28;20638;-77
2022/06/25 00:34:01;;;;;;;5.77;2.70;;;17.00;99.90;;;;;;5034087;28;20271;-77
2022/06/25 00:36:27;;;;;;;2.30;2.10;;;17.00;99.90;;;;;;5034246;28;20180;-77
2022/06/25 00:38:52;;;;;;;4.00;1.87;;;16.90;99.90;;;;;;5034388;28;20569;-77
2022/06/25 00:41:18;;;;;;;3.20;1.73;;;16.90;99.90;;;;;;5035073;28;20173;-78
2022/06/25 00:43:43;;;;;;;3.50;2.10;;;16.90;99.90;;;;;;5018099;28;20175;-78
2022/06/25 00:46:09;;;;;;;4.70;2.30;;;16.90;99.90;;;;;;5034336;28;20172;-78
2022/06/25 00:48:34;;;;;;;3.93;2.00;;;16.90;99.90;;;;;;5033844;28;20578;-78
2022/06/25 00:51:04;;;;;;;3.17;1.77;;;16.90;99.90;;;;;;5015789;28;20669;-77
2022/06/25 00:53:32;;;;;;;2.23;1.80;;;16.90;99.90;;;;;;5033895;28;20173;-78
2022/06/25 00:56:03;;;;;;;3.03;2.27;;;16.90;99.90;;;;;;5033439;28;20249;-77
2022/06/25 00:58:31;;;;;;;2.23;1.97;;;16.90;99.90;;;;;;5016220;28;20211;-78
2022/06/25 01:00:59;;;;;;;4.50;2.10;;;16.90;99.90;;;;;;5033338;28;20200;-78
2022/06/25 01:03:28;;;;;;;3.87;2.30;;;16.90;99.90;;;;;;5015883;28;20176;-78
2022/06/25 01:05:54;;;;;;;2.07;1.80;;;16.90;99.90;;;;;;5033367;28;20665;-78
2022/06/25 01:08:20;;;;;;;2.83;2.00;;;16.90;99.90;;;;;;5033826;28;20227;-77
2022/06/25 01:10:46;;;;;;;2.00;1.80;;;16.80;99.90;;;;;;5033538;28;20177;-78
2022/06/25 01:13:11;;;;;;;4.87;2.20;;;16.80;99.90;;;;;;5032981;28;20180;-77
2022/06/25 01:15:38;;;;;;;4.03;2.00;;;16.90;99.90;;;;;;5015680;28;20562;-78
2022/06/25 01:18:04;;;;;;;2.93;1.93;;;16.80;99.90;;;;;;5015721;28;20239;-77
2022/06/25 01:20:29;;;;;;;2.57;2.20;;;16.80;99.90;;;;;;5015190;28;20204;-77
2022/06/25 01:22:56;;;;;;;2.43;2.10;;;16.80;99.90;;;;;;5033052;28;20172;-78
2022/06/25 01:25:22;;;;;;;4.67;2.03;;;16.80;99.90;;;;;;5033237;28;20179;-77
2022/06/25 01:27:47;;;;;;;5.87;1.90;;;16.80;99.90;;;;;;5032851;28;20630;-77
2022/06/25 01:30:14;;;;;;;5.53;2.10;;;16.80;99.90;;;;;;5033353;28;20561;-77
2022/06/25 01:32:40;;;;;;;4.67;2.20;;;16.70;99.90;;;;;;5032734;28;20173;-77
2022/06/25 01:35:07;;;;;;;3.00;2.00;;;16.70;99.90;;;;;;5032635;28;20583;-77
2022/06/25 01:37:33;;;;;;;4.63;1.90;;;16.70;99.90;;;;;;5014740;28;20218;-77
2022/06/25 01:39:59;;;;;;;3.07;2.20;;;16.70;99.90;;;;;;5014908;28;20176;-77
2022/06/25 01:45:12;;;;;;;9.30;2.23;;;16.70;99.90;;;;;;5033171;28;20175;-77
2022/06/25 01:47:39;;;;;;;2.90;1.87;;;16.60;99.90;;;;;;5032431;28;20211;-77
2022/06/25 01:50:06;;;;;;;4.57;2.10;;;16.60;99.90;;;;;;5014800;28;20176;-77
2022/06/25 01:52:32;;;;;;;3.53;2.10;;;16.60;99.90;;;;;;5032485;28;20226;-77
2022/06/25 01:54:58;;;;;;;4.50;2.00;;;16.60;99.90;;;;;;5014668;28;20639;-77
2022/06/25 01:57:24;;;;;;;2.40;2.20;;;16.60;99.90;;;;;;5032055;28;20193;-77
2022/06/25 01:59:49;;;;;;;3.10;1.73;;;16.50;99.90;;;;;;5014184;28;20180;-77
2022/06/25 02:02:15;;;;;;;4.20;2.03;;;16.50;99.90;;;;;;5031509;28;20173;-77
2022/06/25 02:04:41;;;;;;;2.27;2.07;;;16.50;99.90;;;;;;5013797;28;20553;-77
2022/06/25 02:07:06;;;;;;;5.13;2.23;;;16.50;99.90;;;;;;5032537;28;20176;-78
2022/06/25 02:09:32;;;;;;;2.20;1.90;;;16.50;99.90;;;;;;5032406;28;20366;-77
2022/06/25 02:11:57;;;;;;;2.93;2.00;;;16.50;99.90;;;;;;5014540;28;20168;-77
2022/06/25 02:14:24;;;;;;;2.67;2.47;;;16.40;99.90;;;;;;5031932;28;20181;-77
2022/06/25 02:16:49;;;;;;;2.37;2.07;;;16.40;99.90;;;;;;5033030;28;20183;-77
2022/06/25 02:19:15;;;;;;;2.70;2.00;;;16.40;99.90;;;;;;5014832;28;20578;-78
2022/06/25 02:21:40;;;;;;;4.27;2.03;;;16.40;99.90;;;;;;5014113;28;20179;-77
2022/06/25 02:24:06;;;;;;;2.60;2.40;;;16.40;99.90;;;;;;5035721;28;20204;-78
2022/06/25 02:26:31;;;;;;;2.80;1.87;;;16.40;99.90;;;;;;5018839;28;20668;-77
2022/06/25 02:28:57;;;;;;;4.97;2.37;;;16.30;99.90;;;;;;5034122;22;20694;-78
2022/06/25 02:31:22;;;;;;;5.30;1.97;;;16.30;99.90;;;;;;5036519;28;20222;-77
2022/06/25 02:33:48;;;;;;;4.03;2.80;;;16.30;99.90;;;;;;5018412;28;20259;-78
2022/06/25 02:36:13;;;;;;;5.10;2.20;;;16.40;99.90;;;;;;5037267;28;20548;-76
2022/06/25 02:38:39;;;;;;;2.80;2.50;;;16.30;99.90;;;;;;5018464;28;20212;-78
2022/06/25 02:41:04;;;;;;;2.50;2.30;;;16.30;99.90;;;;;;5036495;28;20168;-76
2022/06/25 02:43:30;;;;;;;5.97;2.53;;;16.30;99.90;;;;;;5036438;28;20187;-77
2022/06/25 02:45:55;;;;;;;3.10;2.47;;;16.30;99.90;;;;;;5036887;28;20180;-77
2022/06/25 02:48:21;;;;;;;3.90;2.43;;;16.30;99.90;;;;;;5036270;28;20200;-78
2022/06/25 02:50:46;;;;;;;2.97;2.30;;;16.30;99.90;;;;;;5036463;28;20177;-78
2022/06/25 02:53:12;;;;;;;3.80;2.70;;;16.30;99.90;;;;;;5035800;28;20172;-77
2022/06/25 03:01:05;;;;;;;3.37;2.53;;;16.30;99.90;;;;;;5036357;28;20160;-77
2022/06/25 03:03:31;;;;;;;5.07;2.53;;;16.30;99.90;;;;;;5017922;28;20176;-78
2022/06/25 03:05:56;;;;;;;3.20;2.43;;;16.30;99.90;;;;;;5036008;28;20650;-78
2022/06/25 03:08:22;;;;;;;4.33;2.67;;;16.20;99.90;;;;;;5035425;28;20279;-78
2022/06/25 03:10:47;;;;;;;4.57;2.67;;;16.20;99.90;;;;;;5035345;28;20260;-77
2022/06/25 03:13:13;;;;;;;7.97;2.70;;;16.20;99.90;;;;;;5035576;28;20207;-77
2022/06/25 03:15:39;;;;;;;6.10;3.40;;;16.20;99.90;;;;;;5035198;28;20222;-78
2022/06/25 03:18:05;;;;;;;3.17;2.87;;;16.20;99.90;;;;;;5035077;28;20203;-78
2022/06/25 03:20:30;;;;;;;4.67;3.00;;;16.30;99.90;;;;;;5036410;28;20729;-78
2022/06/25 03:22:56;;;;;;;4.70;2.50;;;16.20;99.90;;;;;;5036060;28;20175;-78
2022/06/25 03:25:23;;;;;;;8.80;2.77;;;16.20;99.90;;;;;;5036273;28;20164;-78
2022/06/25 03:27:48;;;;;;;3.50;2.20;;;16.20;99.90;;;;;;5035439;28;20173;-77
2022/06/25 03:30:14;;;;;;;3.47;2.13;;;16.10;99.90;;;;;;5036030;28;20212;-78
2022/06/25 03:32:39;;;;;;;2.77;2.50;;;16.10;99.90;;;;;;5017999;28;20627;-77
2022/06/25 03:35:05;;;;;;;7.10;2.67;;;16.10;99.90;;;;;;5034994;28;20183;-77
2022/06/25 03:37:31;;;;;;;4.77;2.73;;;16.10;99.90;;;;;;5035167;28;20441;-77
2022/06/25 03:39:57;;;;;;;5.27;3.10;;;16.10;99.90;;;;;;5035389;28;20275;-79
2022/06/25 03:42:23;;;;;;;3.60;2.93;;;16.10;99.90;;;;;;5017341;28;20242;-77
2022/06/25 03:44:48;;;;;;;4.73;2.90;;;16.10;99.90;;;;;;5035159;28;20231;-77
2022/06/25 03:47:14;;;;;;;3.50;2.90;;;16.10;99.90;;;;;;5034977;28;20664;-77
2022/06/25 03:49:39;;;;;;;5.83;2.73;;;16.10;99.90;;;;;;5034896;28;20227;-78
2022/06/25 03:52:05;;;;;;;5.07;3.00;;;16.10;99.90;;;;;;5035009;28;20203;-78
2022/06/25 03:54:30;;;;;;;5.03;2.90;;;16.10;99.90;;;;;;5034684;28;20642;-77
2022/06/25 03:56:56;;;;;;;5.30;3.27;;;16.10;99.90;;;;;;5034841;28;20169;-78
2022/06/25 03:59:21;;;;;;;5.17;2.80;;;16.20;99.90;;;;;;5016746;28;20199;-77
2022/06/25 04:01:47;;;;;;;3.27;2.97;;;16.20;99.90;;;;;;5016579;28;20206;-78
2022/06/25 04:04:13;;;;;;;4.70;2.80;;;16.20;99.90;;;;;;5034514;28;20206;-78
2022/06/25 04:06:38;;;;;;;5.30;3.00;;;16.20;99.90;;;;;;5034759;28;20176;-78
2022/06/25 04:09:04;;;;;;;3.47;3.13;;;16.20;99.90;;;;;;5035256;28;20203;-78
2022/06/25 04:11:30;;;;;;;5.33;3.13;;;16.20;99.90;;;;;;5016915;28;20176;-77
2022/06/25 04:13:55;;;;;;;3.80;3.07;;;16.20;99.90;;;;;;5017284;28;20237;-78
2022/06/25 04:16:22;;;;;;;3.80;3.40;;;16.20;99.90;;;;;;5016792;28;20299;-78
2022/06/25 04:18:47;;;;;;;5.43;3.50;;;16.20;99.90;;;;;;5034447;28;20228;-77
2022/06/25 04:21:13;;;;;;;4.90;3.17;;;16.30;99.90;;;;;;5034416;28;20646;-77
2022/06/25 04:23:39;;;;;;;5.10;3.23;;;16.30;99.90;;;;;;5034443;28;20172;-78
2022/06/25 04:26:04;;;;;;;4.13;3.00;;;16.30;99.90;;;;;;5016368;28;20210;-78
2022/06/25 04:31:14;;;;;;;4.07;2.80;;;16.30;99.90;;;;;;5034252;28;20600;-78
2022/06/25 04:33:40;;;;;;;4.77;3.13;;;16.40;99.90;;;;;;5034285;28;20180;-79
2022/06/25 04:36:06;;;;;;;3.37;3.07;;;16.40;99.90;;;;;;5034998;28;20251;-79
2022/06/25 04:38:31;;;;;;;5.40;3.33;;;16.40;99.90;;;;;;5016967;28;20248;-78
2022/06/25 04:40:57;;;;;;;6.30;3.10;;;16.40;99.90;;;;;;5035522;28;20631;-78
2022/06/25 04:43:23;;;;;;;7.03;2.87;;;16.50;99.90;;;;;;5016882;28;20233;-78
2022/06/25 04:45:49;;;;;;;6.60;3.00;;;16.50;99.90;;;;;;5016177;28;20271;-78
2022/06/25 04:48:15;;;;;;;4.73;3.00;;;16.50;99.90;;;;;;5034013;28;20275;-78
2022/06/25 04:50:45;;;;;;;7.73;3.00;;;16.50;99.90;;;;;;5034092;28;20637;-78
2022/06/25 04:53:12;;;;;;;3.50;3.20;;;16.60;99.90;;;;;;5015942;28;20192;-78
2022/06/25 04:55:37;;;;;;;5.13;3.27;;;16.60;99.90;;;;;;5034187;28;20251;-77
2022/06/25 04:58:03;;;;;;;5.20;3.40;;;16.60;99.90;;;;;;5034114;28;20349;-77
2022/06/25 05:00:29;;;;;;;4.40;3.07;;;16.70;99.90;;;;;;5034136;28;20600;-78
2022/06/25 05:02:54;;;;;;;7.67;4.23;;;16.70;99.90;;;;;;5034291;28;20168;-78
2022/06/25 05:05:20;;;;;;;3.00;2.77;;;16.70;99.90;;;;;;5016613;28;20230;-78
2022/06/25 05:07:45;;;;;;;2.70;2.40;;;16.80;99.90;;;;;;5033722;28;20580;-78
2022/06/25 05:10:11;;;;;;;4.80;2.97;;;16.80;99.90;;;;;;5033585;28;20231;-78
2022/06/25 05:15:21;;;;;;;3.47;2.60;;;16.80;99.90;;;;;;5034412;28;20202;-77
2022/06/25 05:17:47;;;;;;;4.70;2.63;;;16.80;99.90;;;;;;5033593;28;20196;-78
2022/06/25 05:20:13;;;;;;;4.33;2.90;;;16.90;99.90;;;;;;5016046;28;20192;-78
2022/06/25 05:22:38;;;;;;;7.80;2.80;;;16.90;99.90;;;;;;5016146;28;20183;-78
2022/06/25 05:25:05;;;;;;;4.87;3.53;;;16.90;99.90;;;;;;5033868;28;20183;-77
2022/06/25 05:27:30;;;;;;;3.90;3.00;;;17.00;99.90;;;;;;5033742;28;20195;-78
2022/06/25 05:29:56;;;;;;;6.03;2.90;;;17.00;99.90;;;;;;5015889;28;20208;-77
2022/06/25 05:32:21;;;;;;;7.73;2.80;;;17.00;99.90;;;;;;5015895;28;20180;-78
2022/06/25 05:34:48;;;;;;;8.27;3.20;;;17.00;99.90;;;;;;5033726;28;20203;-78
2022/06/25 05:37:14;;;;;;;8.40;2.80;;;17.10;99.90;;;;;;5015930;28;20172;-77
2022/06/25 05:39:40;;;;;;;5.67;3.10;;;17.10;99.90;;;;;;5016018;28;20196;-78
2022/06/25 05:42:06;;;;;;;5.00;3.40;;;17.10;99.90;;;;;;5015511;28;20173;-79
2022/06/25 05:44:31;;;;;;;3.23;2.87;;;17.20;99.90;;;;;;5033682;28;20255;-78
2022/06/25 05:46:57;;;;;;;4.63;2.83;;;17.20;99.90;;;;;;5016160;28;20172;-78
2022/06/25 05:49:22;;;;;;;4.73;2.87;;;17.30;99.90;;;;;;5015908;28;20207;-78
2022/06/25 05:51:48;;;;;;;4.17;3.27;;;17.40;99.90;;;;;;5033852;28;20164;-78
2022/06/25 05:54:14;;;;;;;3.57;3.27;;;17.40;99.90;;;;;;5034072;28;20176;-79
2022/06/25 05:56:39;;;;;;;7.43;3.37;;;17.50;99.90;;;;;;5035404;28;20195;-78
2022/06/25 05:59:05;;;;;;;3.47;3.17;;;17.50;99.90;;;;;;5037832;28;20211;-78
2022/06/25 06:01:30;;;;;;;4.17;3.10;;;17.50;99.90;;;;;;5020327;28;20168;-79
2022/06/25 06:03:56;;;;;;;7.83;2.87;;;17.60;99.90;;;;;;5038341;28;20172;-79
2022/06/25 06:06:21;;;;;;;3.13;2.83;;;17.60;99.90;;;;;;5038868;28;20642;-79
2022/06/25 06:08:47;;;;;;;8.17;3.50;;;17.60;99.90;;;;;;5020194;28;20686;-80
2022/06/25 06:11:12;;;;;;;3.50;3.07;;;17.70;99.90;;;;;;5038815;28;20180;-78
2022/06/25 06:13:38;;;;;;;5.27;2.60;;;17.70;99.90;;;;;;5020206;28;20183;-79
2022/06/25 06:16:04;;;;;;;4.37;2.30;;;17.70;99.90;;;;;;5020557;28;20188;-77
2022/06/25 06:18:29;;;;;;;4.00;2.37;;;17.70;99.90;;;;;;5037861;28;20306;-79
2022/06/25 06:20:55;;;;;;;3.77;2.80;;;17.80;99.90;;;;;;5038834;28;20215;-79
2022/06/25 06:23:20;;;;;;;7.23;3.00;;;17.80;99.90;;;;;;5039326;28;20718;-78
2022/06/25 06:25:46;;;;;;;2.93;2.60;;;18.00;99.90;;;;;;5038597;28;20168;-80
2022/06/25 06:28:12;;;;;;;2.87;2.53;;;17.90;99.90;;;;;;5037325;28;20707;-78
2022/06/25 06:30:37;;;;;;;3.50;2.40;;;17.90;99.90;;;;;;5037717;28;20161;-78
2022/06/25 06:33:03;;;;;;;5.17;2.70;;;17.90;99.90;;;;;;5037226;28;20706;-78
2022/06/25 06:35:29;;;;;;;8.13;2.10;;;18.00;99.90;;;;;;5019202;28;20180;-78
2022/06/25 06:37:54;;;;;;;4.80;2.20;;;18.00;99.90;;;;;;5019194;28;20204;-78
2022/06/25 06:40:20;;;;;;;3.93;1.97;;;18.10;99.90;;;;;;5021081;28;20180;-80
2022/06/25 06:42:46;;;;;;;6.17;2.23;;;18.10;99.90;;;;;;5041457;28;20173;-79
2022/06/25 06:45:11;;;;;;;4.60;2.00;;;18.10;99.90;;;;;;5039173;28;20172;-79
2022/06/25 06:47:37;;;;;;;5.80;1.90;;;18.10;99.90;;;;;;5038569;28;20172;-79
2022/06/25 06:50:03;;;;;;;5.60;2.37;;;18.20;99.90;;;;;;5022446;28;20196;-79
2022/06/25 06:52:28;;;;;;;4.20;2.07;;;18.20;99.90;;;;;;5027888;28;20177;-77
2022/06/25 06:54:54;;;;;;;3.63;1.90;;;18.30;99.90;;;;;;5040651;28;20192;-78
2022/06/25 06:57:20;;;;;;;2.60;1.93;;;18.30;99.90;;;;;;5039650;28;20172;-79
2022/06/25 06:59:45;;;;;;;6.23;1.80;;;18.40;99.90;;;;;;5037989;28;20242;-76
2022/06/25 07:02:11;;;;;;;5.57;1.60;;;18.50;99.90;;;;;;5036550;28;20244;-78
2022/06/25 07:04:36;;;;;;;2.23;1.60;;;18.50;99.90;;;;;;5051783;28;20176;-78
2022/06/25 07:07:02;;;;;;;2.60;1.70;;;18.50;99.90;;;;;;5037301;28;20184;-78
2022/06/25 07:09:27;;;;;;;3.33;1.60;;;18.50;99.90;;;;;;5050965;28;20196;-78
2022/06/25 07:11:53;;;;;;;6.60;1.73;;;18.60;99.90;;;;;;5052251;28;20243;-78
2022/06/25 07:14:19;;;;;;;3.37;1.60;;;18.60;99.90;;;;;;5036648;28;20226;-78
2022/06/25 07:16:44;;;;;;;2.50;1.80;;;18.60;99.90;;;;;;5035908;28;20180;-77
2022/06/25 07:19:12;;;;;;;2.53;1.70;;;18.70;99.90;;;;;;5036055;28;20686;-78
2022/06/25 07:21:38;;;;;;;1.67;1.30;;;18.70;99.90;;;;;;5035752;28;20203;-77
2022/06/25 07:24:04;;;;;;;3.27;1.73;;;18.80;99.90;;;;;;5036267;28;20639;-77
2022/06/25 07:26:29;;;;;;;4.10;1.70;;;18.80;99.90;;;;;;5035820;28;20291;-77
2022/06/25 07:28:55;;;;;;;4.50;1.30;;;18.90;99.90;;;;;;5035471;28;20243;-77
2022/06/25 07:31:21;;;;;;;2.90;1.67;;;18.90;99.90;;;;;;5036023;28;20172;-78
2022/06/25 07:33:47;;;;;;;3.07;1.67;;;19.10;99.90;;;;;;5036213;28;20176;-78
2022/06/25 07:36:13;;;;;;;3.47;1.70;;;19.00;99.90;;;;;;5036641;28;20522;-77
2022/06/25 07:38:38;;;;;;;2.57;1.50;;;19.10;99.90;;;;;;5036179;28;20203;-78
2022/06/25 07:41:05;;;;;;;2.77;1.50;;;19.10;99.90;;;;;;5035642;28;20169;-77
2022/06/25 07:43:31;;;;;;;2.20;1.60;;;19.30;99.90;;;;;;5035717;28;20267;-77
2022/06/25 07:45:58;;;;;;;1.57;1.47;;;19.50;99.90;;;;;;5034183;28;20204;-77
2022/06/25 07:48:23;;;;;;;3.43;1.50;;;19.50;99.90;;;;;;5035691;28;20200;-77
2022/06/25 07:53:33;;;;;;;5.17;1.60;;;19.60;99.90;;;;;;5035720;28;20593;-76
2022/06/25 07:55:59;;;;;;;5.27;2.10;;;19.60;99.90;;;;;;5034540;28;20184;-77
2022/06/25 07:58:26;;;;;;;5.17;1.60;;;19.70;99.90;;;;;;5033728;28;20234;-76
2022/06/25 08:00:52;;;;;;;4.10;1.67;;;19.70;99.90;;;;;;5033914;28;20666;-76
2022/06/25 08:03:18;;;;;;;3.40;1.50;;;19.80;99.90;;;;;;5033902;28;20176;-77
2022/06/25 08:05:44;;;;;;;4.20;1.53;;;19.90;99.90;;;;;;5035292;28;20208;-77
2022/06/25 08:08:10;;;;;;;2.87;1.60;;;19.90;99.90;;;;;;5033785;28;20555;-78
2022/06/25 08:10:35;;;;;;;4.70;1.30;;;20.00;99.90;;;;;;5035386;28;20183;-77
2022/06/25 08:13:02;;;;;;;2.50;1.57;;;20.10;99.90;;;;;;5034601;28;20189;-78
2022/06/25 08:15:28;;;;;;;2.30;1.50;;;20.20;99.90;;;;;;5035251;28;20176;-78
2022/06/25 08:17:53;;;;;;;4.50;1.63;;;20.20;99.90;;;;;;5032977;28;20200;-75
2022/06/25 08:20:19;;;;;;;7.23;2.13;;;20.30;99.90;;;;;;5033053;28;20177;-76
2022/06/25 08:22:44;;;;;;;3.83;1.53;;;20.30;99.90;;;;;;5033993;28;20558;-75
2022/06/25 08:25:10;;;;;;;3.00;1.93;;;20.40;99.90;;;;;;5033738;28;20207;-75
2022/06/25 08:27:50;;;;;;;2.20;1.20;;;20.50;99.90;;;;;;5032513;28;20198;-76
2022/06/25 08:30:17;;;;;;;2.40;1.10;;;20.60;99.90;;;;;;5056181;22;20228;-79
2022/06/25 08:32:44;;;;;;;12.70;1.73;;;20.70;99.90;;;;;;5040465;28;20259;-79
2022/06/25 08:35:10;;;;;;;4.67;1.20;;;20.80;99.90;;;;;;5040903;28;20172;-79
2022/06/25 08:37:39;;;;;;;8.23;1.57;;;20.80;99.90;;;;;;5039965;28;20203;-78
2022/06/25 08:40:06;;;;;;;2.10;1.17;;;20.90;99.90;;;;;;5026708;28;20191;-79
2022/06/25 08:42:32;;;;;;;2.67;1.10;;;20.90;99.90;;;;;;5058498;28;20167;-78
2022/06/25 08:44:58;;;;;;;3.10;1.17;;;20.90;67.90;;;;;;5056509;28;20239;-78
2022/06/25 08:47:23;;;;;;;4.17;1.00;;;21.00;1.00;;;;;;5058279;28;20225;-78
2022/06/25 08:49:49;;;;;;;1.97;1.00;;;21.00;70.80;;;;;;5057402;28;20204;-78
2022/06/25 08:52:18;;;;;;;3.33;0.90;;;21.10;99.90;;;;;;5059643;28;20195;-79
2022/06/25 08:54:45;;;;;;;2.37;0.73;;;21.20;99.90;;;;;;5062552;28;20166;-78
2022/06/25 08:57:10;;;;;;;1.70;0.87;;;21.20;1.00;;;;;;5064277;28;20250;-78
2022/06/25 08:59:38;;;;;;;2.67;0.70;;;21.20;1.00;;;;;;5057675;28;20693;-79
2022/06/25 09:02:04;;;;;;;1.47;0.90;;;21.20;1.00;;;;;;5057983;28;20164;-78
2022/06/25 09:04:29;;;;;;;4.17;0.83;;;21.30;1.00;;;;;;5057315;28;20182;-78
2022/06/25 09:07:17;;;;;;;2.57;0.60;;;21.20;99.90;;;;;;5057018;28;20175;-78
2022/06/25 09:09:51;;;;;;;5.77;1.00;;;21.20;1.00;;;;;;5057526;28;20697;-76
2022/06/25 09:12:18;;;;;;;5.87;1.20;;;21.20;1.00;;;;;;5057856;28;20198;-80
2022/06/25 09:14:44;;;;;;;2.93;0.73;;;21.10;99.90;;;;;;5059256;28;20168;-78
2022/06/25 09:17:14;;;;;;;2.20;0.90;;;21.20;1.00;;;;;;5058199;28;20167;-78
2022/06/25 09:19:47;;;;;;;1.90;0.70;;;21.30;99.90;;;;;;5059131;28;20183;-79
2022/06/25 09:22:15;;;;;;;2.30;1.00;;;21.40;99.90;;;;;;5059425;28;20699;-78
2022/06/25 09:24:48;;;;;;;1.60;0.70;;;22.00;99.90;;;;;;5058633;28;20175;-78
2022/06/25 09:27:20;;;;;;;2.30;1.10;;;22.00;1.00;;;;;;5059319;28;20160;-78
2022/06/25 09:29:50;;;;;;;4.77;0.90;;;22.10;1.00;;;;;;5041955;28;20210;-79
2022/06/25 09:32:18;;;;;;;1.73;0.97;;;22.30;99.90;;;;;;5057383;28;20654;-78
2022/06/25 09:34:44;;;;;;;3.80;0.83;;;22.40;1.00;;;;;;5059635;28;20167;-76
2022/06/25 09:37:25;;;;;;;1.53;0.70;;;22.40;99.90;;;;;;5058334;28;20179;-78
2022/06/25 09:39:53;;;;;;;2.67;0.90;;;22.50;1.00;;;;;;5057358;28;20213;-77
2022/06/25 09:42:30;;;;;;;1.90;0.90;;;22.50;1.00;;;;;;5058542;28;20168;-76
2022/06/25 09:45:05;;;;;;;3.23;0.90;;;22.50;99.90;;;;;;5052937;28;20179;-76
2022/06/25 09:47:34;;;;;;;1.33;0.70;;;22.50;1.00;;;;;;5052770;28;20625;-74
2022/06/25 09:50:19;;;;;;;1.57;0.63;;;22.50;61.60;;;;;;5051322;28;20300;-74
2022/06/25 09:52:56;;;;;;;2.07;0.80;;;22.50;1.00;;;;;;5052680;28;20171;-74
2022/06/25 09:55:30;;;;;;;2.23;0.93;;;22.50;1.00;;;;;;5052796;28;20175;-73
2022/06/25 09:57:58;;;;;;;5.60;1.00;;;22.50;1.00;;;;;;5051274;28;20278;-75
2022/06/25 10:00:25;;;;;;;2.90;0.90;;;22.50;99.90;;;;;;5052474;28;20188;-74
2022/06/25 10:02:52;;;;;;;1.47;0.80;;;22.70;99.90;;;;;;5051324;28;20175;-76
2022/06/25 10:05:23;;;;;;;5.23;0.83;;;22.80;1.00;;;;;;5051866;28;20664;-76
2022/06/25 10:08:01;;;;;;;2.37;1.00;;;22.90;1.00;;;;;;5052574;28;20164;-74
2022/06/25 10:10:31;;;;;;;2.60;0.90;;;22.90;99.90;;;;;;5053373;28;20191;-76
2022/06/25 10:12:57;;;;;;;1.33;0.90;;;22.90;1.00;;;;;;5051227;28;20184;-76
2022/06/25 10:15:24;;;;;;;2.73;1.20;;;23.00;1.00;;;;;;5051787;28;20182;-77
2022/06/25 10:17:53;;;;;;;5.43;0.87;;;22.90;1.00;;;;;;5051759;28;20204;-76
2022/06/25 10:20:20;;;;;;;1.67;1.00;;;23.10;1.00;;;;;;5051895;28;20278;-77
2022/06/25 10:22:48;;;;;;;3.37;0.97;;;23.10;55.70;;;;;;5052871;28;20234;-78
2022/06/25 10:25:17;;;;;;;2.20;1.00;;;23.20;1.00;;;;;;5055068;28;20205;-78
2022/06/25 10:27:48;;;;;;;2.07;0.80;;;23.20;99.90;;;;;;5057330;28;20172;-78
2022/06/25 10:30:15;;;;;;;2.07;1.20;;;23.40;99.90;;;;;;5052839;28;20289;-77
2022/06/25 10:32:49;;;;;;;2.63;1.20;;;23.40;99.90;;;;;;5052466;28;20179;-76
2022/06/25 10:35:33;;;;;;;2.10;0.97;;;23.40;38.40;;;;;;5052714;28;20178;-76
2022/06/25 10:38:16;;;;;;;2.60;1.30;;;23.40;99.90;;;;;;5052190;28;20183;-76
2022/06/25 10:43:49;;;;;;;4.23;1.20;;;23.20;1.00;;;;;;5055291;28;20158;-77
2022/06/25 10:46:36;;;;;;;4.30;1.10;;;23.20;1.00;;;;;;5061002;28;20168;-77
2022/06/25 10:49:08;;;;;;;2.13;1.17;;;23.10;99.90;;;;;;5058374;28;20546;-77
2022/06/25 10:51:48;;;;;;;3.30;0.90;;;23.10;1.00;;;;;;5061359;28;20253;-77
2022/06/25 10:54:22;;;;;;;1.90;1.30;;;23.10;1.00;;;;;;5061152;28;20691;-77
2022/06/25 10:56:51;;;;;;;2.60;1.30;;;23.10;99.90;;;;;;5059707;28;20682;-77
2022/06/25 10:59:39;;;;;;;3.63;1.20;;;23.20;1.00;;;;;;5060255;28;20199;-77
2022/06/25 11:02:08;;;;;;;4.03;1.57;;;23.10;1.30;;;;;;5064487;28;20171;-79
2022/06/25 11:04:35;;;;;;;2.33;1.20;;;23.10;1.00;;;;;;5061863;28;20247;-78
2022/06/25 11:07:17;;;;;;;2.67;0.97;;;23.20;99.90;;;;;;5060605;28;20175;-79
2022/06/25 11:09:54;;;;;;;3.40;1.10;;;23.30;1.00;;;;;;5061129;28;20551;-79
2022/06/25 11:12:19;;;;;;;2.73;1.00;;;23.30;1.00;;;;;;5057702;28;20553;-79
2022/06/25 11:14:50;;;;;;;3.17;1.27;;;23.40;99.90;;;;;;5056941;28;20172;-79
2022/06/25 11:17:16;;;;;;;2.00;1.00;;;23.40;1.00;;;;;;5056477;28;20160;-79
2022/06/25 11:19:42;;;;;;;1.23;1.10;;;23.50;99.90;;;;;;5062889;28;20728;-78
2022/06/25 11:22:08;;;;;;;2.63;1.17;;;23.50;99.90;;;;;;5061436;28;20168;-80
2022/06/25 11:24:33;;;;;;;8.70;1.30;;;23.70;99.90;;;;;;5058490;28;20192;-79
2022/06/25 11:29:51;;;;;;;3.30;1.37;;;24.00;99.90;;;;;;5057914;28;20720;-78
2022/06/25 11:32:22;;;;;;;2.77;1.17;;;24.20;99.90;;;;;;5057774;28;20159;-79
2022/06/25 11:34:58;;;;;;;1.90;1.03;;;24.20;1.00;;;;;;5058136;28;20262;-78
2022/06/25 11:37:24;;;;;;;6.00;1.20;;;24.30;99.90;;;;;;5058785;28;20258;-78
2022/06/25 11:39:51;;;;;;;3.83;1.10;;;24.20;1.00;;;;;;5062040;28;20188;-79
2022/06/25 11:42:17;;;;;;;3.03;1.07;;;24.20;99.90;;;;;;5057602;28;20197;-78
2022/06/25 11:44:46;;;;;;;2.50;1.23;;;24.10;99.90;;;;;;5060707;28;20167;-77
2022/06/25 11:47:20;;;;;;;1.60;1.13;;;24.00;1.00;;;;;;5060837;28;20176;-79
2022/06/25 11:49:46;;;;;;;4.67;0.90;;;24.00;99.90;;;;;;5061437;28;20198;-77
2022/06/25 11:52:14;;;;;;;1.73;1.03;;;23.90;99.90;;;;;;5061506;28;20258;-78
2022/06/25 11:54:41;;;;;;;2.07;1.10;;;24.00;1.00;;;;;;5062407;28;20185;-77
2022/06/25 11:57:09;;;;;;;1.63;1.13;;;24.00;99.90;;;;;;5059513;28;20176;-77
2022/06/25 11:59:37;;;;;;;2.50;1.03;;;24.20;1.00;;;;;;5062044;28;20221;-78
2022/06/25 12:02:04;;;;;;;2.87;1.10;;;24.20;1.00;;;;;;5061261;28;20167;-77
2022/06/25 12:04:32;;;;;;;1.47;1.03;;;24.30;1.00;;;;;;5061571;28;20179;-78
2022/06/25 12:06:58;;;;;;;2.80;1.37;;;24.30;99.90;;;;;;5061314;28;20348;-77
2022/06/25 12:09:24;;;;;;;2.40;1.13;;;24.40;99.90;;;;;;5058701;28;20180;-78
2022/06/25 12:11:52;;;;;;;2.07;0.90;;;24.30;99.90;;;;;;5060019;28;20183;-78
2022/06/25 12:14:31;;;;;;;2.97;1.20;;;24.40;1.00;;;;;;5058631;28;20176;-77
2022/06/25 12:16:58;;;;;;;3.67;1.50;;;24.50;1.00;;;;;;5058672;28;20163;-78
2022/06/25 12:19:42;;;;;;;6.00;1.23;;;24.50;1.00;;;;;;5056856;28;20234;-77
2022/06/25 12:22:18;;;;;;;3.17;1.03;;;24.40;1.00;;;;;;5056926;28;20167;-75
2022/06/25 12:24:47;;;;;;;3.17;1.20;;;24.60;1.00;;;;;;5054058;28;20663;-76
2022/06/25 12:27:13;;;;;;;4.83;1.10;;;24.40;1.00;;;;;;5053677;28;20641;-76
2022/06/25 12:29:38;;;;;;;2.33;1.00;;;24.50;1.00;;;;;;5053441;28;20191;-76
2022/06/25 12:32:04;;;;;;;2.97;1.00;;;24.50;99.90;;;;;;5054249;28;20168;-75
2022/06/25 12:34:30;;;;;;;3.00;1.17;;;24.50;99.90;;;;;;5053876;28;20179;-76
2022/06/25 12:36:56;;;;;;;4.03;1.27;;;24.50;1.00;;;;;;5052230;28;20171;-76
2022/06/25 12:39:30;;;;;;;2.10;1.02;;;24.60;99.90;;;;;;5053319;28;20207;-76
2022/06/25 12:41:55;;;;;;;1.95;1.15;;;24.60;99.90;;;;;;5052193;28;20207;-76
2022/06/25 12:44:21;;;;;;;3.27;1.30;;;24.70;99.90;;;;;;5053360;28;20179;-76
2022/06/25 12:47:00;;;;;;;4.90;1.00;;;24.80;99.90;;;;;;5053336;28;20668;-76
2022/06/25 12:49:26;;;;;;;3.63;0.90;;;24.70;99.90;;;;;;5053495;28;20198;-76
2022/06/25 12:51:51;;;;;;;2.88;0.90;;;24.80;99.90;;;;;;5053332;28;20661;-76
2022/06/25 12:54:17;;;;;;;2.67;1.00;;;24.70;1.00;;;;;;5053296;28;20270;-77
2022/06/25 12:56:43;;;;;;;2.67;0.90;;;24.70;1.00;;;;;;5053943;28;20183;-78
2022/06/25 12:59:08;;;;;;;2.27;1.10;;;24.90;99.90;;;;;;5053864;28;20273;-78
2022/06/25 13:01:35;;;;;;;3.50;1.10;;;24.80;99.90;;;;;;5053195;28;20199;-76
2022/06/25 13:04:01;;;;;;;1.47;1.20;;;24.80;99.90;;;;;;5053328;28;20164;-75
2022/06/25 13:06:27;;;;;;;1.83;1.05;;;24.90;99.90;;;;;;5051147;28;20171;-76
2022/06/25 13:08:52;;;;;;;3.08;1.00;;;25.00;99.90;;;;;;5053133;28;20171;-77
2022/06/25 13:11:22;;;;;;;4.20;1.13;;;25.10;1.00;;;;;;5052983;28;20664;-75
2022/06/25 13:13:49;;;;;;;5.97;1.30;;;25.10;1.00;;;;;;5053921;28;20514;-76